sensor_id;sensor_type;location;lat;lon;timestamp;P1;durP1;ratioP1;P2;durP2;ratioP2
33902;SDS011;20194;50.950;5.346;2023-07-24T00:02:03;8.60;;;4.43;;
33902;SDS011;20194;50.950;5.346;2023-07-24T00:04:32;7.85;;;4.70;;
33902;SDS011;20194;50.950;5.346;2023-07-24T00:06:59;8.45;;;4.93;;
33902;SDS011;20194;50.950;5.346;2023-07-24T00:09:25;7.53;;;4.53;;
33902;SDS011;20194;50.950;5.346;2023-07-24T00:11:50;10.75;;;5.35;;
33902;SDS011;20194;50.950;5.346;2023-07-24T00:14:16;11.48;;;5.18;;
33902;SDS011;20194;50.950;5.346;2023-07-24T00:16:43;6.82;;;4.45;;
33902;SDS011;20194;50.950;5.346;2023-07-24T00:19:08;9.57;;;4.18;;
33902;SDS011;20194;50.950;5.346;2023-07-24T00:21:34;8.20;;;4.55;;
33902;SDS011;20194;50.950;5.346;2023-07-24T00:24:00;13.23;;;4.55;;
33902;SDS011;20194;50.950;5.346;2023-07-24T00:26:25;9.98;;;5.53;;
33902;SDS011;20194;50.950;5.346;2023-07-24T00:28:51;9.68;;;4.47;;
33902;SDS011;20194;50.950;5.346;2023-07-24T00:31:17;14.98;;;4.50;;
33902;SDS011;20194;50.950;5.346;2023-07-24T00:33:42;11.98;;;4.25;;
33902;SDS011;20194;50.950;5.346;2023-07-24T00:36:08;6.05;;;4.20;;
33902;SDS011;20194;50.950;5.346;2023-07-24T00:38:34;10.18;;;4.47;;
33902;SDS011;20194;50.950;5.346;2023-07-24T00:40:59;11.50;;;4.60;;
33902;SDS011;20194;50.950;5.346;2023-07-24T00:43:25;10.23;;;4.55;;
33902;SDS011;20194;50.950;5.346;2023-07-24T00:45:51;13.88;;;4.93;;
33902;SDS011;20194;50.950;5.346;2023-07-24T00:48:18;11.93;;;5.22;;
33902;SDS011;20194;50.950;5.346;2023-07-24T00:50:44;11.07;;;4.63;;
33902;SDS011;20194;50.950;5.346;2023-07-24T00:53:11;9.20;;;4.18;;
33902;SDS011;20194;50.950;5.346;2023-07-24T00:55:38;17.52;;;4.78;;
33902;SDS011;20194;50.950;5.346;2023-07-24T00:58:04;9.93;;;4.82;;
33902;SDS011;20194;50.950;5.346;2023-07-24T01:00:30;10.60;;;4.32;;
33902;SDS011;20194;50.950;5.346;2023-07-24T01:02:56;10.38;;;4.70;;
33902;SDS011;20194;50.950;5.346;2023-07-24T01:05:22;8.45;;;4.70;;
33902;SDS011;20194;50.950;5.346;2023-07-24T01:07:51;16.42;;;5.40;;
33902;SDS011;20194;50.950;5.346;2023-07-24T01:10:17;15.80;;;5.15;;
33902;SDS011;20194;50.950;5.346;2023-07-24T01:12:50;13.25;;;5.32;;
33902;SDS011;20194;50.950;5.346;2023-07-24T01:16:08;10.13;;;5.32;;
33902;SDS011;20194;50.950;5.346;2023-07-24T01:18:21;9.77;;;4.38;;
33902;SDS011;20194;50.950;5.346;2023-07-24T01:20:54;12.13;;;4.57;;
33902;SDS011;20194;50.950;5.346;2023-07-24T01:25:54;11.52;;;5.03;;
33902;SDS011;20194;50.950;5.346;2023-07-24T01:28:25;8.75;;;4.90;;
33902;SDS011;20194;50.950;5.346;2023-07-24T01:30:51;14.18;;;5.18;;
33902;SDS011;20194;50.950;5.346;2023-07-24T01:33:17;11.68;;;4.88;;
33902;SDS011;20194;50.950;5.346;2023-07-24T01:35:44;9.27;;;4.63;;
33902;SDS011;20194;50.950;5.346;2023-07-24T01:38:15;12.80;;;5.20;;
33902;SDS011;20194;50.950;5.346;2023-07-24T01:40:42;13.80;;;4.75;;
33902;SDS011;20194;50.950;5.346;2023-07-24T01:43:08;10.07;;;4.85;;
33902;SDS011;20194;50.950;5.346;2023-07-24T01:45:35;14.57;;;5.28;;
33902;SDS011;20194;50.950;5.346;2023-07-24T01:48:03;13.75;;;4.97;;
33902;SDS011;20194;50.950;5.346;2023-07-24T01:50:30;15.57;;;5.50;;
33902;SDS011;20194;50.950;5.346;2023-07-24T01:52:56;12.13;;;5.47;;
33902;SDS011;20194;50.950;5.346;2023-07-24T01:55:22;14.25;;;4.85;;
33902;SDS011;20194;50.950;5.346;2023-07-24T01:57:47;12.40;;;5.10;;
33902;SDS011;20194;50.950;5.346;2023-07-24T02:00:13;12.65;;;4.43;;
33902;SDS011;20194;50.950;5.346;2023-07-24T02:02:39;15.13;;;5.78;;
33902;SDS011;20194;50.950;5.346;2023-07-24T02:05:05;13.98;;;4.50;;
33902;SDS011;20194;50.950;5.346;2023-07-24T02:07:30;14.57;;;5.30;;
33902;SDS011;20194;50.950;5.346;2023-07-24T02:09:56;13.07;;;5.10;;
33902;SDS011;20194;50.950;5.346;2023-07-24T02:12:22;18.00;;;5.13;;
33902;SDS011;20194;50.950;5.346;2023-07-24T02:14:48;11.73;;;5.75;;
33902;SDS011;20194;50.950;5.346;2023-07-24T02:17:16;10.52;;;5.35;;
33902;SDS011;20194;50.950;5.346;2023-07-24T02:19:42;9.18;;;4.78;;
33902;SDS011;20194;50.950;5.346;2023-07-24T02:22:08;8.70;;;4.80;;
33902;SDS011;20194;50.950;5.346;2023-07-24T02:24:34;15.30;;;5.80;;
33902;SDS011;20194;50.950;5.346;2023-07-24T02:27:00;12.43;;;4.93;;
33902;SDS011;20194;50.950;5.346;2023-07-24T02:29:26;10.35;;;5.75;;
33902;SDS011;20194;50.950;5.346;2023-07-24T02:31:52;15.75;;;5.35;;
33902;SDS011;20194;50.950;5.346;2023-07-24T02:34:19;8.13;;;5.00;;
33902;SDS011;20194;50.950;5.346;2023-07-24T02:36:49;12.52;;;5.35;;
33902;SDS011;20194;50.950;5.346;2023-07-24T02:39:15;14.68;;;5.57;;
33902;SDS011;20194;50.950;5.346;2023-07-24T02:41:41;14.73;;;5.18;;
33902;SDS011;20194;50.950;5.346;2023-07-24T02:44:06;15.75;;;5.35;;
33902;SDS011;20194;50.950;5.346;2023-07-24T02:46:32;10.57;;;4.97;;
33902;SDS011;20194;50.950;5.346;2023-07-24T02:48:58;10.20;;;5.18;;
33902;SDS011;20194;50.950;5.346;2023-07-24T02:51:23;9.20;;;5.30;;
33902;SDS011;20194;50.950;5.346;2023-07-24T02:53:49;14.50;;;5.57;;
33902;SDS011;20194;50.950;5.346;2023-07-24T02:56:15;12.20;;;5.20;;
33902;SDS011;20194;50.950;5.346;2023-07-24T02:58:41;12.95;;;5.90;;
33902;SDS011;20194;50.950;5.346;2023-07-24T03:01:07;11.35;;;5.15;;
33902;SDS011;20194;50.950;5.346;2023-07-24T03:03:33;10.15;;;5.60;;
33902;SDS011;20194;50.950;5.346;2023-07-24T03:05:59;12.32;;;5.18;;
33902;SDS011;20194;50.950;5.346;2023-07-24T03:08:25;22.58;;;5.95;;
33902;SDS011;20194;50.950;5.346;2023-07-24T03:10:51;13.10;;;5.57;;
33902;SDS011;20194;50.950;5.346;2023-07-24T03:13:17;11.70;;;5.63;;
33902;SDS011;20194;50.950;5.346;2023-07-24T03:15:42;15.70;;;5.68;;
33902;SDS011;20194;50.950;5.346;2023-07-24T03:18:08;10.70;;;5.40;;
33902;SDS011;20194;50.950;5.346;2023-07-24T03:20:34;10.95;;;5.55;;
33902;SDS011;20194;50.950;5.346;2023-07-24T03:23:00;11.48;;;5.28;;
33902;SDS011;20194;50.950;5.346;2023-07-24T03:25:25;9.50;;;5.68;;
33902;SDS011;20194;50.950;5.346;2023-07-24T03:27:51;14.13;;;5.50;;
33902;SDS011;20194;50.950;5.346;2023-07-24T03:30:16;13.00;;;5.93;;
33902;SDS011;20194;50.950;5.346;2023-07-24T03:32:42;13.57;;;5.93;;
33902;SDS011;20194;50.950;5.346;2023-07-24T03:35:08;10.70;;;5.88;;
33902;SDS011;20194;50.950;5.346;2023-07-24T03:37:34;14.57;;;5.78;;
33902;SDS011;20194;50.950;5.346;2023-07-24T03:40:00;13.55;;;5.93;;
33902;SDS011;20194;50.950;5.346;2023-07-24T03:42:27;16.23;;;5.72;;
33902;SDS011;20194;50.950;5.346;2023-07-24T03:44:54;10.45;;;5.03;;
33902;SDS011;20194;50.950;5.346;2023-07-24T03:47:20;10.70;;;5.55;;
33902;SDS011;20194;50.950;5.346;2023-07-24T03:49:45;13.20;;;5.45;;
33902;SDS011;20194;50.950;5.346;2023-07-24T03:52:11;12.02;;;5.53;;
33902;SDS011;20194;50.950;5.346;2023-07-24T03:54:37;9.30;;;5.47;;
33902;SDS011;20194;50.950;5.346;2023-07-24T03:57:03;9.30;;;5.32;;
33902;SDS011;20194;50.950;5.346;2023-07-24T03:59:29;12.48;;;5.75;;
33902;SDS011;20194;50.950;5.346;2023-07-24T04:01:55;10.40;;;5.25;;
33902;SDS011;20194;50.950;5.346;2023-07-24T04:04:21;11.40;;;5.32;;
33902;SDS011;20194;50.950;5.346;2023-07-24T04:06:47;10.30;;;5.10;;
33902;SDS011;20194;50.950;5.346;2023-07-24T04:09:12;13.23;;;4.53;;
33902;SDS011;20194;50.950;5.346;2023-07-24T04:11:40;12.23;;;5.63;;
33902;SDS011;20194;50.950;5.346;2023-07-24T04:14:06;10.52;;;5.53;;
33902;SDS011;20194;50.950;5.346;2023-07-24T04:16:32;12.45;;;5.18;;
33902;SDS011;20194;50.950;5.346;2023-07-24T04:18:58;10.02;;;5.28;;
33902;SDS011;20194;50.950;5.346;2023-07-24T04:21:24;7.88;;;4.50;;
33902;SDS011;20194;50.950;5.346;2023-07-24T04:23:49;9.48;;;5.13;;
33902;SDS011;20194;50.950;5.346;2023-07-24T04:26:15;8.23;;;4.68;;
33902;SDS011;20194;50.950;5.346;2023-07-24T04:28:40;10.43;;;5.18;;
33902;SDS011;20194;50.950;5.346;2023-07-24T04:31:06;9.68;;;4.78;;
33902;SDS011;20194;50.950;5.346;2023-07-24T04:33:32;9.05;;;4.72;;
33902;SDS011;20194;50.950;5.346;2023-07-24T04:35:57;7.55;;;4.40;;
33902;SDS011;20194;50.950;5.346;2023-07-24T04:38:23;9.65;;;4.70;;
33902;SDS011;20194;50.950;5.346;2023-07-24T04:40:49;11.05;;;4.57;;
33902;SDS011;20194;50.950;5.346;2023-07-24T04:43:14;6.40;;;4.07;;
33902;SDS011;20194;50.950;5.346;2023-07-24T04:45:40;11.10;;;4.30;;
33902;SDS011;20194;50.950;5.346;2023-07-24T04:48:05;8.07;;;4.60;;
33902;SDS011;20194;50.950;5.346;2023-07-24T04:50:31;8.35;;;4.22;;
33902;SDS011;20194;50.950;5.346;2023-07-24T04:52:57;10.02;;;4.57;;
33902;SDS011;20194;50.950;5.346;2023-07-24T04:55:23;5.57;;;3.63;;
33902;SDS011;20194;50.950;5.346;2023-07-24T04:57:49;5.90;;;3.88;;
33902;SDS011;20194;50.950;5.346;2023-07-24T05:00:15;6.15;;;3.33;;
33902;SDS011;20194;50.950;5.346;2023-07-24T05:02:41;8.88;;;3.38;;
33902;SDS011;20194;50.950;5.346;2023-07-24T05:05:07;8.98;;;3.03;;
33902;SDS011;20194;50.950;5.346;2023-07-24T05:07:33;5.53;;;3.15;;
33902;SDS011;20194;50.950;5.346;2023-07-24T05:09:59;5.35;;;2.08;;
33902;SDS011;20194;50.950;5.346;2023-07-24T05:12:25;6.03;;;2.55;;
33902;SDS011;20194;50.950;5.346;2023-07-24T05:14:50;4.65;;;2.50;;
33902;SDS011;20194;50.950;5.346;2023-07-24T05:17:16;7.30;;;2.72;;
33902;SDS011;20194;50.950;5.346;2023-07-24T05:19:42;11.93;;;3.10;;
33902;SDS011;20194;50.950;5.346;2023-07-24T05:22:08;7.75;;;2.60;;
33902;SDS011;20194;50.950;5.346;2023-07-24T05:24:35;3.67;;;2.22;;
33902;SDS011;20194;50.950;5.346;2023-07-24T05:27:04;4.80;;;2.10;;
33902;SDS011;20194;50.950;5.346;2023-07-24T05:29:30;3.25;;;1.70;;
33902;SDS011;20194;50.950;5.346;2023-07-24T05:31:56;4.25;;;1.92;;
33902;SDS011;20194;50.950;5.346;2023-07-24T05:34:22;3.38;;;1.73;;
33902;SDS011;20194;50.950;5.346;2023-07-24T05:36:48;3.10;;;1.98;;
33902;SDS011;20194;50.950;5.346;2023-07-24T05:39:14;4.78;;;1.60;;
33902;SDS011;20194;50.950;5.346;2023-07-24T05:41:40;4.93;;;1.85;;
33902;SDS011;20194;50.950;5.346;2023-07-24T05:44:05;4.28;;;1.73;;
33902;SDS011;20194;50.950;5.346;2023-07-24T05:46:31;4.20;;;1.98;;
33902;SDS011;20194;50.950;5.346;2023-07-24T05:48:57;2.42;;;1.50;;
33902;SDS011;20194;50.950;5.346;2023-07-24T05:51:22;2.10;;;1.63;;
33902;SDS011;20194;50.950;5.346;2023-07-24T05:53:49;2.67;;;1.80;;
33902;SDS011;20194;50.950;5.346;2023-07-24T05:56:14;3.22;;;1.90;;
33902;SDS011;20194;50.950;5.346;2023-07-24T05:58:40;3.15;;;1.77;;
33902;SDS011;20194;50.950;5.346;2023-07-24T06:01:06;3.03;;;1.73;;
33902;SDS011;20194;50.950;5.346;2023-07-24T06:03:35;2.60;;;1.80;;
33902;SDS011;20194;50.950;5.346;2023-07-24T06:06:00;2.90;;;1.90;;
33902;SDS011;20194;50.950;5.346;2023-07-24T06:08:26;3.60;;;2.20;;
33902;SDS011;20194;50.950;5.346;2023-07-24T06:10:52;2.28;;;1.80;;
33902;SDS011;20194;50.950;5.346;2023-07-24T06:13:18;5.00;;;2.47;;
33902;SDS011;20194;50.950;5.346;2023-07-24T06:15:44;5.05;;;2.53;;
33902;SDS011;20194;50.950;5.346;2023-07-24T06:18:11;6.88;;;2.60;;
33902;SDS011;20194;50.950;5.346;2023-07-24T06:20:37;2.70;;;2.50;;
33902;SDS011;20194;50.950;5.346;2023-07-24T06:23:03;3.53;;;2.28;;
33902;SDS011;20194;50.950;5.346;2023-07-24T06:25:29;3.28;;;2.38;;
33902;SDS011;20194;50.950;5.346;2023-07-24T06:27:56;6.00;;;2.50;;
33902;SDS011;20194;50.950;5.346;2023-07-24T06:30:22;5.57;;;2.72;;
33902;SDS011;20194;50.950;5.346;2023-07-24T06:32:48;6.45;;;2.53;;
33902;SDS011;20194;50.950;5.346;2023-07-24T06:35:13;4.88;;;2.50;;
33902;SDS011;20194;50.950;5.346;2023-07-24T06:37:39;7.30;;;2.22;;
33902;SDS011;20194;50.950;5.346;2023-07-24T06:40:05;7.07;;;2.67;;
33902;SDS011;20194;50.950;5.346;2023-07-24T06:42:32;6.53;;;3.20;;
33902;SDS011;20194;50.950;5.346;2023-07-24T06:44:58;11.05;;;3.15;;
33902;SDS011;20194;50.950;5.346;2023-07-24T06:47:23;3.88;;;2.30;;
33902;SDS011;20194;50.950;5.346;2023-07-24T06:49:49;7.13;;;2.50;;
33902;SDS011;20194;50.950;5.346;2023-07-24T06:52:15;5.72;;;2.00;;
33902;SDS011;20194;50.950;5.346;2023-07-24T06:54:41;5.78;;;2.28;;
33902;SDS011;20194;50.950;5.346;2023-07-24T06:57:07;2.97;;;1.70;;
33902;SDS011;20194;50.950;5.346;2023-07-24T06:59:32;5.90;;;2.33;;
33902;SDS011;20194;50.950;5.346;2023-07-24T07:01:58;4.10;;;2.42;;
33902;SDS011;20194;50.950;5.346;2023-07-24T07:04:24;3.20;;;2.65;;
33902;SDS011;20194;50.950;5.346;2023-07-24T07:06:49;5.63;;;2.20;;
33902;SDS011;20194;50.950;5.346;2023-07-24T07:09:15;4.35;;;2.83;;
33902;SDS011;20194;50.950;5.346;2023-07-24T07:11:41;3.10;;;2.20;;
33902;SDS011;20194;50.950;5.346;2023-07-24T07:14:08;5.80;;;2.35;;
33902;SDS011;20194;50.950;5.346;2023-07-24T07:16:34;3.85;;;1.83;;
33902;SDS011;20194;50.950;5.346;2023-07-24T07:19:00;3.00;;;2.00;;
33902;SDS011;20194;50.950;5.346;2023-07-24T07:21:25;3.45;;;2.13;;
33902;SDS011;20194;50.950;5.346;2023-07-24T07:23:51;5.50;;;2.17;;
33902;SDS011;20194;50.950;5.346;2023-07-24T07:26:17;3.67;;;2.25;;
33902;SDS011;20194;50.950;5.346;2023-07-24T07:28:42;4.68;;;2.40;;
33902;SDS011;20194;50.950;5.346;2023-07-24T07:31:10;4.05;;;1.88;;
33902;SDS011;20194;50.950;5.346;2023-07-24T07:33:35;2.75;;;1.70;;
33902;SDS011;20194;50.950;5.346;2023-07-24T07:36:02;4.00;;;2.20;;
33902;SDS011;20194;50.950;5.346;2023-07-24T07:38:29;5.00;;;2.33;;
33902;SDS011;20194;50.950;5.346;2023-07-24T07:40:55;2.53;;;1.90;;
33902;SDS011;20194;50.950;5.346;2023-07-24T07:43:21;3.95;;;2.00;;
33902;SDS011;20194;50.950;5.346;2023-07-24T07:45:47;3.85;;;1.88;;
33902;SDS011;20194;50.950;5.346;2023-07-24T07:48:13;3.17;;;1.63;;
33902;SDS011;20194;50.950;5.346;2023-07-24T07:50:39;2.53;;;1.88;;
33902;SDS011;20194;50.950;5.346;2023-07-24T07:53:06;4.35;;;1.75;;
33902;SDS011;20194;50.950;5.346;2023-07-24T07:55:32;3.58;;;1.85;;
33902;SDS011;20194;50.950;5.346;2023-07-24T07:57:58;5.93;;;2.05;;
33902;SDS011;20194;50.950;5.346;2023-07-24T08:00:23;3.13;;;2.00;;
33902;SDS011;20194;50.950;5.346;2023-07-24T08:02:49;9.05;;;2.72;;
33902;SDS011;20194;50.950;5.346;2023-07-24T08:05:15;1.35;;;1.20;;
33902;SDS011;20194;50.950;5.346;2023-07-24T08:07:40;2.80;;;1.70;;
33902;SDS011;20194;50.950;5.346;2023-07-24T08:10:06;5.93;;;2.03;;
33902;SDS011;20194;50.950;5.346;2023-07-24T08:12:32;2.38;;;1.70;;
33902;SDS011;20194;50.950;5.346;2023-07-24T08:14:59;2.33;;;1.98;;
33902;SDS011;20194;50.950;5.346;2023-07-24T08:17:25;2.35;;;1.77;;
33902;SDS011;20194;50.950;5.346;2023-07-24T08:19:50;2.10;;;1.65;;
33902;SDS011;20194;50.950;5.346;2023-07-24T08:22:16;3.63;;;1.83;;
33902;SDS011;20194;50.950;5.346;2023-07-24T08:24:44;4.22;;;2.08;;
33902;SDS011;20194;50.950;5.346;2023-07-24T08:27:10;2.22;;;2.00;;
33902;SDS011;20194;50.950;5.346;2023-07-24T08:29:36;4.13;;;1.92;;
33902;SDS011;20194;50.950;5.346;2023-07-24T08:32:03;4.75;;;1.90;;
33902;SDS011;20194;50.950;5.346;2023-07-24T08:34:29;9.60;;;2.40;;
33902;SDS011;20194;50.950;5.346;2023-07-24T08:36:55;3.30;;;1.70;;
33902;SDS011;20194;50.950;5.346;2023-07-24T08:39:20;3.30;;;1.98;;
33902;SDS011;20194;50.950;5.346;2023-07-24T08:41:46;1.83;;;1.65;;
33902;SDS011;20194;50.950;5.346;2023-07-24T08:44:11;6.43;;;2.08;;
33902;SDS011;20194;50.950;5.346;2023-07-24T08:46:38;2.17;;;1.92;;
33902;SDS011;20194;50.950;5.346;2023-07-24T08:49:06;2.28;;;1.95;;
33902;SDS011;20194;50.950;5.346;2023-07-24T08:51:36;3.95;;;1.90;;
33902;SDS011;20194;50.950;5.346;2023-07-24T08:54:03;5.35;;;2.10;;
33902;SDS011;20194;50.950;5.346;2023-07-24T08:56:30;2.00;;;1.85;;
33902;SDS011;20194;50.950;5.346;2023-07-24T08:58:57;2.88;;;2.10;;
33902;SDS011;20194;50.950;5.346;2023-07-24T09:01:22;4.18;;;1.70;;
33902;SDS011;20194;50.950;5.346;2023-07-24T09:03:48;2.13;;;1.77;;
33902;SDS011;20194;50.950;5.346;2023-07-24T09:06:14;1.80;;;1.70;;
33902;SDS011;20194;50.950;5.346;2023-07-24T09:08:41;2.20;;;2.00;;
33902;SDS011;20194;50.950;5.346;2023-07-24T09:11:08;2.10;;;1.73;;
33902;SDS011;20194;50.950;5.346;2023-07-24T09:13:35;2.38;;;2.17;;
33902;SDS011;20194;50.950;5.346;2023-07-24T09:16:02;3.42;;;2.00;;
33902;SDS011;20194;50.950;5.346;2023-07-24T09:18:43;5.07;;;2.05;;
33902;SDS011;20194;50.950;5.346;2023-07-24T09:21:09;5.13;;;2.33;;
33902;SDS011;20194;50.950;5.346;2023-07-24T09:23:37;2.22;;;1.90;;
33902;SDS011;20194;50.950;5.346;2023-07-24T09:26:06;3.13;;;2.20;;
33902;SDS011;20194;50.950;5.346;2023-07-24T09:28:32;5.28;;;2.47;;
33902;SDS011;20194;50.950;5.346;2023-07-24T09:30:59;5.38;;;2.70;;
33902;SDS011;20194;50.950;5.346;2023-07-24T09:33:36;2.95;;;2.42;;
33902;SDS011;20194;50.950;5.346;2023-07-24T09:36:04;3.58;;;2.30;;
33902;SDS011;20194;50.950;5.346;2023-07-24T09:38:32;2.47;;;2.28;;
33902;SDS011;20194;50.950;5.346;2023-07-24T09:40:58;4.00;;;2.97;;
33902;SDS011;20194;50.950;5.346;2023-07-24T09:43:26;7.05;;;2.30;;
33902;SDS011;20194;50.950;5.346;2023-07-24T09:45:53;5.85;;;3.70;;
33902;SDS011;20194;50.950;5.346;2023-07-24T09:48:20;6.40;;;2.45;;
33902;SDS011;20194;50.950;5.346;2023-07-24T09:50:48;4.70;;;2.50;;
33902;SDS011;20194;50.950;5.346;2023-07-24T09:56:09;6.20;;;3.00;;
33902;SDS011;20194;50.950;5.346;2023-07-24T09:58:39;6.18;;;3.17;;
33902;SDS011;20194;50.950;5.346;2023-07-24T10:01:09;8.05;;;3.40;;
33902;SDS011;20194;50.950;5.346;2023-07-24T10:03:38;7.05;;;3.00;;
33902;SDS011;20194;50.950;5.346;2023-07-24T10:06:04;8.48;;;3.58;;
33902;SDS011;20194;50.950;5.346;2023-07-24T10:08:31;6.75;;;4.18;;
33902;SDS011;20194;50.950;5.346;2023-07-24T10:10:59;6.53;;;3.70;;
33902;SDS011;20194;50.950;5.346;2023-07-24T10:13:26;5.13;;;3.05;;
33902;SDS011;20194;50.950;5.346;2023-07-24T10:15:53;2.85;;;1.70;;
33902;SDS011;20194;50.950;5.346;2023-07-24T10:18:25;4.72;;;1.23;;
33902;SDS011;20194;50.950;5.346;2023-07-24T10:23:33;3.42;;;1.10;;
33902;SDS011;20194;50.950;5.346;2023-07-24T10:26:04;1.60;;;0.88;;
33902;SDS011;20194;50.950;5.346;2023-07-24T10:28:33;2.22;;;1.02;;
33902;SDS011;20194;50.950;5.346;2023-07-24T10:31:03;2.03;;;1.23;;
33902;SDS011;20194;50.950;5.346;2023-07-24T10:33:33;0.90;;;0.70;;
33902;SDS011;20194;50.950;5.346;2023-07-24T10:36:09;8.05;;;1.83;;
33902;SDS011;20194;50.950;5.346;2023-07-24T10:38:42;1.08;;;0.98;;
33902;SDS011;20194;50.950;5.346;2023-07-24T10:41:08;1.23;;;1.02;;
33902;SDS011;20194;50.950;5.346;2023-07-24T10:43:45;1.77;;;1.10;;
33902;SDS011;20194;50.950;5.346;2023-07-24T10:46:12;0.88;;;0.88;;
33902;SDS011;20194;50.950;5.346;2023-07-24T10:48:41;2.15;;;1.15;;
33902;SDS011;20194;50.950;5.346;2023-07-24T10:51:08;1.95;;;1.38;;
33902;SDS011;20194;50.950;5.346;2023-07-24T10:53:38;3.47;;;1.55;;
33902;SDS011;20194;50.950;5.346;2023-07-24T10:56:06;2.15;;;1.73;;
33902;SDS011;20194;50.950;5.346;2023-07-24T10:58:32;1.85;;;1.20;;
33902;SDS011;20194;50.950;5.346;2023-07-24T11:01:02;3.42;;;1.50;;
33902;SDS011;20194;50.950;5.346;2023-07-24T11:03:32;1.98;;;1.70;;
33902;SDS011;20194;50.950;5.346;2023-07-24T11:06:01;4.50;;;1.45;;
33902;SDS011;20194;50.950;5.346;2023-07-24T11:08:28;2.72;;;1.67;;
33902;SDS011;20194;50.950;5.346;2023-07-24T11:10:54;5.15;;;1.83;;
33902;SDS011;20194;50.950;5.346;2023-07-24T11:13:23;1.77;;;1.60;;
33902;SDS011;20194;50.950;5.346;2023-07-24T11:15:50;3.25;;;1.90;;
33902;SDS011;20194;50.950;5.346;2023-07-24T11:18:17;2.45;;;1.67;;
33902;SDS011;20194;50.950;5.346;2023-07-24T11:20:48;4.20;;;2.00;;
33902;SDS011;20194;50.950;5.346;2023-07-24T11:23:20;7.15;;;2.33;;
33902;SDS011;20194;50.950;5.346;2023-07-24T11:25:46;4.78;;;2.03;;
33902;SDS011;20194;50.950;5.346;2023-07-24T11:28:14;3.80;;;2.05;;
33902;SDS011;20194;50.950;5.346;2023-07-24T11:30:40;2.40;;;1.98;;
33902;SDS011;20194;50.950;5.346;2023-07-24T11:33:08;5.03;;;2.05;;
33902;SDS011;20194;50.950;5.346;2023-07-24T11:35:35;3.78;;;2.20;;
33902;SDS011;20194;50.950;5.346;2023-07-24T11:38:03;3.88;;;2.30;;
33902;SDS011;20194;50.950;5.346;2023-07-24T11:40:36;5.72;;;2.33;;
33902;SDS011;20194;50.950;5.346;2023-07-24T11:45:46;2.40;;;2.13;;
33902;SDS011;20194;50.950;5.346;2023-07-24T11:48:21;3.08;;;1.90;;
33902;SDS011;20194;50.950;5.346;2023-07-24T11:50:50;3.45;;;2.47;;
33902;SDS011;20194;50.950;5.346;2023-07-24T11:53:22;2.53;;;2.20;;
33902;SDS011;20194;50.950;5.346;2023-07-24T11:55:50;3.28;;;2.05;;
33902;SDS011;20194;50.950;5.346;2023-07-24T11:58:17;5.72;;;2.40;;
33902;SDS011;20194;50.950;5.346;2023-07-24T12:00:43;3.17;;;2.20;;
33902;SDS011;20194;50.950;5.346;2023-07-24T12:03:10;2.92;;;1.88;;
33902;SDS011;20194;50.950;5.346;2023-07-24T12:05:39;5.97;;;2.30;;
33902;SDS011;20194;50.950;5.346;2023-07-24T12:08:06;4.18;;;2.55;;
33902;SDS011;20194;50.950;5.346;2023-07-24T12:10:35;3.08;;;2.60;;
33902;SDS011;20194;50.950;5.346;2023-07-24T12:13:04;2.90;;;2.40;;
33902;SDS011;20194;50.950;5.346;2023-07-24T12:15:31;3.55;;;2.47;;
33902;SDS011;20194;50.950;5.346;2023-07-24T12:17:58;2.75;;;2.30;;
33902;SDS011;20194;50.950;5.346;2023-07-24T12:20:26;5.15;;;2.20;;
33902;SDS011;20194;50.950;5.346;2023-07-24T12:22:52;2.63;;;2.15;;
33902;SDS011;20194;50.950;5.346;2023-07-24T12:25:18;5.22;;;2.00;;
33902;SDS011;20194;50.950;5.346;2023-07-24T12:27:45;2.53;;;2.10;;
33902;SDS011;20194;50.950;5.346;2023-07-24T12:30:11;3.20;;;2.33;;
33902;SDS011;20194;50.950;5.346;2023-07-24T12:32:37;3.85;;;2.00;;
33902;SDS011;20194;50.950;5.346;2023-07-24T12:35:03;2.03;;;1.83;;
33902;SDS011;20194;50.950;5.346;2023-07-24T12:37:30;5.60;;;1.73;;
33902;SDS011;20194;50.950;5.346;2023-07-24T12:39:55;3.97;;;1.95;;
33902;SDS011;20194;50.950;5.346;2023-07-24T12:42:21;3.33;;;1.75;;
33902;SDS011;20194;50.950;5.346;2023-07-24T12:44:48;2.25;;;1.80;;
33902;SDS011;20194;50.950;5.346;2023-07-24T12:47:14;3.33;;;2.05;;
33902;SDS011;20194;50.950;5.346;2023-07-24T12:49:39;2.75;;;2.03;;
33902;SDS011;20194;50.950;5.346;2023-07-24T12:52:05;2.00;;;1.75;;
33902;SDS011;20194;50.950;5.346;2023-07-24T12:54:32;3.95;;;2.55;;
33902;SDS011;20194;50.950;5.346;2023-07-24T12:56:59;4.40;;;2.22;;
33902;SDS011;20194;50.950;5.346;2023-07-24T12:59:25;3.95;;;2.30;;
33902;SDS011;20194;50.950;5.346;2023-07-24T13:01:51;3.33;;;2.72;;
33902;SDS011;20194;50.950;5.346;2023-07-24T13:04:17;6.45;;;2.28;;
33902;SDS011;20194;50.950;5.346;2023-07-24T13:06:44;6.75;;;2.90;;
33902;SDS011;20194;50.950;5.346;2023-07-24T13:09:10;2.88;;;2.55;;
33902;SDS011;20194;50.950;5.346;2023-07-24T13:11:36;4.90;;;3.05;;
33902;SDS011;20194;50.950;5.346;2023-07-24T13:14:01;3.97;;;2.70;;
33902;SDS011;20194;50.950;5.346;2023-07-24T13:16:27;6.40;;;2.95;;
33902;SDS011;20194;50.950;5.346;2023-07-24T13:18:53;4.10;;;2.95;;
33902;SDS011;20194;50.950;5.346;2023-07-24T13:21:19;5.38;;;2.90;;
33902;SDS011;20194;50.950;5.346;2023-07-24T13:23:46;3.90;;;2.83;;
33902;SDS011;20194;50.950;5.346;2023-07-24T13:26:12;4.95;;;2.92;;
33902;SDS011;20194;50.950;5.346;2023-07-24T13:28:38;4.95;;;2.80;;
33902;SDS011;20194;50.950;5.346;2023-07-24T13:31:16;4.85;;;2.90;;
33902;SDS011;20194;50.950;5.346;2023-07-24T13:33:43;2.60;;;2.40;;
33902;SDS011;20194;50.950;5.346;2023-07-24T13:36:09;4.78;;;2.72;;
33902;SDS011;20194;50.950;5.346;2023-07-24T13:38:35;3.05;;;2.45;;
33902;SDS011;20194;50.950;5.346;2023-07-24T13:41:01;3.15;;;2.13;;
33902;SDS011;20194;50.950;5.346;2023-07-24T13:43:28;3.13;;;2.20;;
33902;SDS011;20194;50.950;5.346;2023-07-24T13:45:54;2.75;;;2.40;;
33902;SDS011;20194;50.950;5.346;2023-07-24T13:48:20;4.15;;;2.80;;
33902;SDS011;20194;50.950;5.346;2023-07-24T13:50:45;4.35;;;2.40;;
33902;SDS011;20194;50.950;5.346;2023-07-24T13:53:11;4.47;;;2.78;;
33902;SDS011;20194;50.950;5.346;2023-07-24T13:55:37;5.32;;;2.80;;
33902;SDS011;20194;50.950;5.346;2023-07-24T13:58:03;3.53;;;2.67;;
33902;SDS011;20194;50.950;5.346;2023-07-24T14:00:28;4.60;;;2.58;;
33902;SDS011;20194;50.950;5.346;2023-07-24T14:02:54;5.25;;;3.00;;
33902;SDS011;20194;50.950;5.346;2023-07-24T14:05:20;4.07;;;2.70;;
33902;SDS011;20194;50.950;5.346;2023-07-24T14:07:46;5.18;;;2.67;;
33902;SDS011;20194;50.950;5.346;2023-07-24T14:10:11;4.07;;;2.72;;
33902;SDS011;20194;50.950;5.346;2023-07-24T14:12:37;4.97;;;2.58;;
33902;SDS011;20194;50.950;5.346;2023-07-24T14:15:03;7.82;;;3.15;;
33902;SDS011;20194;50.950;5.346;2023-07-24T14:17:29;4.25;;;2.75;;
33902;SDS011;20194;50.950;5.346;2023-07-24T14:19:55;5.57;;;2.92;;
33902;SDS011;20194;50.950;5.346;2023-07-24T14:22:20;7.13;;;3.65;;
33902;SDS011;20194;50.950;5.346;2023-07-24T14:24:46;4.47;;;3.38;;
33902;SDS011;20194;50.950;5.346;2023-07-24T14:27:13;5.13;;;3.05;;
33902;SDS011;20194;50.950;5.346;2023-07-24T14:29:39;4.47;;;3.13;;
33902;SDS011;20194;50.950;5.346;2023-07-24T14:32:05;4.97;;;3.10;;
33902;SDS011;20194;50.950;5.346;2023-07-24T14:34:31;5.30;;;3.30;;
33902;SDS011;20194;50.950;5.346;2023-07-24T14:36:57;4.35;;;3.28;;
33902;SDS011;20194;50.950;5.346;2023-07-24T14:39:23;7.97;;;3.67;;
33902;SDS011;20194;50.950;5.346;2023-07-24T14:41:48;4.63;;;3.30;;
33902;SDS011;20194;50.950;5.346;2023-07-24T14:44:14;4.85;;;3.42;;
33902;SDS011;20194;50.950;5.346;2023-07-24T14:46:40;5.90;;;3.17;;
33902;SDS011;20194;50.950;5.346;2023-07-24T14:49:05;5.55;;;3.00;;
33902;SDS011;20194;50.950;5.346;2023-07-24T14:51:31;4.28;;;3.28;;
33902;SDS011;20194;50.950;5.346;2023-07-24T14:53:57;7.25;;;3.03;;